sensor_id;sensor_type;location;lat;lon;timestamp;temperature;humidity
4615;DHT22;2320;51.362;6.946;2023-08-21T00:01:08;17.70;99.90
4615;DHT22;2320;51.362;6.946;2023-08-21T00:03:34;17.80;99.90
4615;DHT22;2320;51.362;6.946;2023-08-21T00:05:59;17.80;99.90
4615;DHT22;2320;51.362;6.946;2023-08-21T00:08:24;17.80;99.90
4615;DHT22;2320;51.362;6.946;2023-08-21T00:10:50;17.80;99.90
4615;DHT22;2320;51.362;6.946;2023-08-21T00:13:15;17.80;99.90
4615;DHT22;2320;51.362;6.946;2023-08-21T00:15:41;17.80;99.90
4615;DHT22;2320;51.362;6.946;2023-08-21T00:18:06;17.80;99.90
4615;DHT22;2320;51.362;6.946;2023-08-21T00:20:32;17.70;99.90
4615;DHT22;2320;51.362;6.946;2023-08-21T00:22:57;17.70;99.90
4615;DHT22;2320;51.362;6.946;2023-08-21T00:25:23;17.60;99.90
4615;DHT22;2320;51.362;6.946;2023-08-21T00:27:48;17.70;99.90
4615;DHT22;2320;51.362;6.946;2023-08-21T00:30:14;17.80;99.90
4615;DHT22;2320;51.362;6.946;2023-08-21T00:32:42;17.60;99.90
4615;DHT22;2320;51.362;6.946;2023-08-21T00:35:07;17.60;99.90
4615;DHT22;2320;51.362;6.946;2023-08-21T00:37:33;17.60;99.90
4615;DHT22;2320;51.362;6.946;2023-08-21T00:39:58;17.50;99.90
4615;DHT22;2320;51.362;6.946;2023-08-21T00:42:24;17.50;99.90
4615;DHT22;2320;51.362;6.946;2023-08-21T00:44:49;17.70;99.90
4615;DHT22;2320;51.362;6.946;2023-08-21T00:47:15;17.70;99.90
4615;DHT22;2320;51.362;6.946;2023-08-21T00:49:40;17.60;99.90
4615;DHT22;2320;51.362;6.946;2023-08-21T00:52:07;17.40;99.90
4615;DHT22;2320;51.362;6.946;2023-08-21T00:54:33;17.50;99.90
4615;DHT22;2320;51.362;6.946;2023-08-21T00:56:59;17.50;99.90
4615;DHT22;2320;51.362;6.946;2023-08-21T00:59:25;17.60;99.90
4615;DHT22;2320;51.362;6.946;2023-08-21T01:01:51;17.70;99.90
4615;DHT22;2320;51.362;6.946;2023-08-21T01:04:16;17.70;99.90
4615;DHT22;2320;51.362;6.946;2023-08-21T01:06:42;17.70;99.90
4615;DHT22;2320;51.362;6.946;2023-08-21T01:09:50;17.80;99.90
4615;DHT22;2320;51.362;6.946;2023-08-21T01:12:10;17.80;99.90
4615;DHT22;2320;51.362;6.946;2023-08-21T01:14:42;17.80;99.90
4615;DHT22;2320;51.362;6.946;2023-08-21T01:17:08;17.70;99.90
4615;DHT22;2320;51.362;6.946;2023-08-21T01:22:00;17.80;99.90
4615;DHT22;2320;51.362;6.946;2023-08-21T01:24:25;17.80;99.90
4615;DHT22;2320;51.362;6.946;2023-08-21T01:26:51;17.70;99.90
4615;DHT22;2320;51.362;6.946;2023-08-21T01:29:16;17.80;99.90
4615;DHT22;2320;51.362;6.946;2023-08-21T01:31:42;17.80;99.90
4615;DHT22;2320;51.362;6.946;2023-08-21T01:34:10;17.60;99.90
4615;DHT22;2320;51.362;6.946;2023-08-21T01:36:36;17.50;99.90
4615;DHT22;2320;51.362;6.946;2023-08-21T01:39:02;17.40;99.90
4615;DHT22;2320;51.362;6.946;2023-08-21T01:41:28;17.40;99.90
4615;DHT22;2320;51.362;6.946;2023-08-21T01:43:53;17.40;99.90
4615;DHT22;2320;51.362;6.946;2023-08-21T01:46:19;17.30;99.90
4615;DHT22;2320;51.362;6.946;2023-08-21T01:48:44;17.30;99.90
4615;DHT22;2320;51.362;6.946;2023-08-21T01:51:10;17.30;99.90
4615;DHT22;2320;51.362;6.946;2023-08-21T01:53:35;17.20;99.90
4615;DHT22;2320;51.362;6.946;2023-08-21T01:56:00;17.20;99.90
4615;DHT22;2320;51.362;6.946;2023-08-21T01:58:26;17.30;99.90
4615;DHT22;2320;51.362;6.946;2023-08-21T02:00:51;17.30;99.90
4615;DHT22;2320;51.362;6.946;2023-08-21T02:03:17;17.30;99.90
4615;DHT22;2320;51.362;6.946;2023-08-21T02:05:42;17.40;99.90
4615;DHT22;2320;51.362;6.946;2023-08-21T02:08:11;17.40;99.90
4615;DHT22;2320;51.362;6.946;2023-08-21T02:10:36;17.30;99.90
4615;DHT22;2320;51.362;6.946;2023-08-21T02:13:02;17.30;99.90
4615;DHT22;2320;51.362;6.946;2023-08-21T02:15:27;17.40;99.90
4615;DHT22;2320;51.362;6.946;2023-08-21T02:17:53;17.30;99.90
4615;DHT22;2320;51.362;6.946;2023-08-21T02:20:19;17.20;99.90
4615;DHT22;2320;51.362;6.946;2023-08-21T02:22:45;17.10;99.90
4615;DHT22;2320;51.362;6.946;2023-08-21T02:25:10;17.10;99.90
4615;DHT22;2320;51.362;6.946;2023-08-21T02:27:36;17.20;99.90
4615;DHT22;2320;51.362;6.946;2023-08-21T02:30:01;17.20;99.90
4615;DHT22;2320;51.362;6.946;2023-08-21T02:32:27;17.20;99.90
4615;DHT22;2320;51.362;6.946;2023-08-21T02:34:52;17.30;99.90
4615;DHT22;2320;51.362;6.946;2023-08-21T02:37:18;17.20;99.90
4615;DHT22;2320;51.362;6.946;2023-08-21T02:39:43;17.30;99.90
4615;DHT22;2320;51.362;6.946;2023-08-21T02:42:09;17.20;99.90
4615;DHT22;2320;51.362;6.946;2023-08-21T02:44:34;17.30;99.90
4615;DHT22;2320;51.362;6.946;2023-08-21T02:46:59;17.30;99.90
4615;DHT22;2320;51.362;6.946;2023-08-21T02:49:25;17.20;99.90
4615;DHT22;2320;51.362;6.946;2023-08-21T02:51:50;17.20;99.90
4615;DHT22;2320;51.362;6.946;2023-08-21T02:54:16;17.10;99.90
4615;DHT22;2320;51.362;6.946;2023-08-21T02:56:41;17.00;99.90
4615;DHT22;2320;51.362;6.946;2023-08-21T02:59:07;17.00;99.90
4615;DHT22;2320;51.362;6.946;2023-08-21T03:01:32;17.00;99.90
4615;DHT22;2320;51.362;6.946;2023-08-21T03:03:58;17.00;99.90
4615;DHT22;2320;51.362;6.946;2023-08-21T03:06:23;17.10;99.90
4615;DHT22;2320;51.362;6.946;2023-08-21T03:08:49;17.10;99.90
4615;DHT22;2320;51.362;6.946;2023-08-21T03:11:14;17.20;99.90
4615;DHT22;2320;51.362;6.946;2023-08-21T03:13:40;17.20;99.90
4615;DHT22;2320;51.362;6.946;2023-08-21T03:16:06;17.10;99.90
4615;DHT22;2320;51.362;6.946;2023-08-21T03:18:31;17.10;99.90
4615;DHT22;2320;51.362;6.946;2023-08-21T03:20:57;17.20;99.90
4615;DHT22;2320;51.362;6.946;2023-08-21T03:23:23;17.10;99.90
4615;DHT22;2320;51.362;6.946;2023-08-21T03:25:51;17.10;99.90
4615;DHT22;2320;51.362;6.946;2023-08-21T03:28:17;17.10;99.90
4615;DHT22;2320;51.362;6.946;2023-08-21T03:30:42;17.20;99.90
4615;DHT22;2320;51.362;6.946;2023-08-21T03:33:08;17.10;99.90
4615;DHT22;2320;51.362;6.946;2023-08-21T03:35:33;17.10;99.90
4615;DHT22;2320;51.362;6.946;2023-08-21T03:37:59;17.10;99.90
4615;DHT22;2320;51.362;6.946;2023-08-21T03:40:24;17.10;99.90
4615;DHT22;2320;51.362;6.946;2023-08-21T03:42:50;17.20;99.90
4615;DHT22;2320;51.362;6.946;2023-08-21T03:45:15;17.10;99.90
4615;DHT22;2320;51.362;6.946;2023-08-21T03:47:41;17.10;99.90
4615;DHT22;2320;51.362;6.946;2023-08-21T03:50:06;17.10;99.90
4615;DHT22;2320;51.362;6.946;2023-08-21T03:52:32;17.20;99.90
4615;DHT22;2320;51.362;6.946;2023-08-21T03:54:57;17.30;99.90
4615;DHT22;2320;51.362;6.946;2023-08-21T03:57:23;17.30;99.90
4615;DHT22;2320;51.362;6.946;2023-08-21T03:59:48;17.20;99.90
4615;DHT22;2320;51.362;6.946;2023-08-21T04:02:13;17.20;99.90
4615;DHT22;2320;51.362;6.946;2023-08-21T04:04:39;17.20;99.90
4615;DHT22;2320;51.362;6.946;2023-08-21T04:07:04;17.20;99.90
4615;DHT22;2320;51.362;6.946;2023-08-21T04:09:31;17.10;99.90
4615;DHT22;2320;51.362;6.946;2023-08-21T04:11:56;17.00;99.90
4615;DHT22;2320;51.362;6.946;2023-08-21T04:14:22;16.90;99.90
4615;DHT22;2320;51.362;6.946;2023-08-21T04:16:47;16.90;99.90
4615;DHT22;2320;51.362;6.946;2023-08-21T04:19:13;16.90;99.90
4615;DHT22;2320;51.362;6.946;2023-08-21T04:21:38;17.00;99.90
4615;DHT22;2320;51.362;6.946;2023-08-21T04:24:04;16.90;99.90
4615;DHT22;2320;51.362;6.946;2023-08-21T04:26:29;17.00;99.90
4615;DHT22;2320;51.362;6.946;2023-08-21T04:28:55;17.00;99.90
4615;DHT22;2320;51.362;6.946;2023-08-21T04:31:21;17.00;99.90
4615;DHT22;2320;51.362;6.946;2023-08-21T04:33:47;17.10;99.90
4615;DHT22;2320;51.362;6.946;2023-08-21T04:36:15;17.10;99.90
4615;DHT22;2320;51.362;6.946;2023-08-21T04:38:41;17.10;99.90
4615;DHT22;2320;51.362;6.946;2023-08-21T04:41:07;17.10;99.90
4615;DHT22;2320;51.362;6.946;2023-08-21T04:43:33;17.20;99.90
4615;DHT22;2320;51.362;6.946;2023-08-21T04:45:58;17.00;99.90
4615;DHT22;2320;51.362;6.946;2023-08-21T04:48:24;17.00;99.90
4615;DHT22;2320;51.362;6.946;2023-08-21T04:50:49;17.00;99.90
4615;DHT22;2320;51.362;6.946;2023-08-21T04:53:15;17.00;99.90
4615;DHT22;2320;51.362;6.946;2023-08-21T04:55:40;17.10;99.90
4615;DHT22;2320;51.362;6.946;2023-08-21T04:58:07;17.20;99.90
4615;DHT22;2320;51.362;6.946;2023-08-21T05:00:32;17.20;99.90
4615;DHT22;2320;51.362;6.946;2023-08-21T05:02:58;17.40;99.90
4615;DHT22;2320;51.362;6.946;2023-08-21T05:05:23;17.50;99.90
4615;DHT22;2320;51.362;6.946;2023-08-21T05:07:49;17.60;99.90
4615;DHT22;2320;51.362;6.946;2023-08-21T05:10:14;17.60;99.90
4615;DHT22;2320;51.362;6.946;2023-08-21T05:12:40;17.40;99.90
4615;DHT22;2320;51.362;6.946;2023-08-21T05:15:06;17.30;99.90
4615;DHT22;2320;51.362;6.946;2023-08-21T05:17:31;17.30;99.90
4615;DHT22;2320;51.362;6.946;2023-08-21T05:19:56;17.30;99.90
4615;DHT22;2320;51.362;6.946;2023-08-21T05:22:22;17.40;99.90
4615;DHT22;2320;51.362;6.946;2023-08-21T05:24:47;17.30;99.90
4615;DHT22;2320;51.362;6.946;2023-08-21T05:27:13;17.50;99.90
4615;DHT22;2320;51.362;6.946;2023-08-21T05:29:38;17.60;99.90
4615;DHT22;2320;51.362;6.946;2023-08-21T05:32:04;17.80;99.90
4615;DHT22;2320;51.362;6.946;2023-08-21T05:34:29;17.90;99.90
4615;DHT22;2320;51.362;6.946;2023-08-21T05:36:55;18.20;99.90
4615;DHT22;2320;51.362;6.946;2023-08-21T05:39:20;18.20;99.90
4615;DHT22;2320;51.362;6.946;2023-08-21T05:41:46;18.10;99.90
4615;DHT22;2320;51.362;6.946;2023-08-21T05:44:11;18.00;99.90
4615;DHT22;2320;51.362;6.946;2023-08-21T05:46:37;18.10;99.90
4615;DHT22;2320;51.362;6.946;2023-08-21T05:49:03;18.00;99.90
4615;DHT22;2320;51.362;6.946;2023-08-21T05:51:29;18.10;99.90
4615;DHT22;2320;51.362;6.946;2023-08-21T05:53:54;18.00;99.90
4615;DHT22;2320;51.362;6.946;2023-08-21T05:56:20;18.00;99.90
4615;DHT22;2320;51.362;6.946;2023-08-21T05:58:45;18.10;99.90
4615;DHT22;2320;51.362;6.946;2023-08-21T06:01:11;18.30;99.90
4615;DHT22;2320;51.362;6.946;2023-08-21T06:03:36;19.20;99.90
4615;DHT22;2320;51.362;6.946;2023-08-21T06:06:02;20.10;99.90
4615;DHT22;2320;51.362;6.946;2023-08-21T06:08:27;21.20;99.90
4615;DHT22;2320;51.362;6.946;2023-08-21T06:10:53;22.40;99.90
4615;DHT22;2320;51.362;6.946;2023-08-21T06:13:18;23.30;99.90
4615;DHT22;2320;51.362;6.946;2023-08-21T06:15:44;23.40;99.90
4615;DHT22;2320;51.362;6.946;2023-08-21T06:18:10;24.20;99.90
4615;DHT22;2320;51.362;6.946;2023-08-21T06:20:36;24.70;99.90
4615;DHT22;2320;51.362;6.946;2023-08-21T06:23:01;24.80;99.90
4615;DHT22;2320;51.362;6.946;2023-08-21T06:25:27;25.10;99.90
4615;DHT22;2320;51.362;6.946;2023-08-21T06:27:52;25.60;99.90
4615;DHT22;2320;51.362;6.946;2023-08-21T06:30:18;26.60;99.90
4615;DHT22;2320;51.362;6.946;2023-08-21T06:32:44;27.00;99.90
4615;DHT22;2320;51.362;6.946;2023-08-21T06:35:09;26.70;99.90
4615;DHT22;2320;51.362;6.946;2023-08-21T06:37:35;26.30;99.90
4615;DHT22;2320;51.362;6.946;2023-08-21T06:40:00;26.60;99.90
4615;DHT22;2320;51.362;6.946;2023-08-21T06:42:26;26.70;99.90
4615;DHT22;2320;51.362;6.946;2023-08-21T06:44:51;27.20;99.90
4615;DHT22;2320;51.362;6.946;2023-08-21T06:47:17;27.40;99.90
4615;DHT22;2320;51.362;6.946;2023-08-21T06:49:42;26.10;99.90
4615;DHT22;2320;51.362;6.946;2023-08-21T06:52:07;25.40;99.90
4615;DHT22;2320;51.362;6.946;2023-08-21T06:54:33;25.20;99.90
4615;DHT22;2320;51.362;6.946;2023-08-21T06:56:59;25.90;99.90
4615;DHT22;2320;51.362;6.946;2023-08-21T06:59:24;25.40;99.90
4615;DHT22;2320;51.362;6.946;2023-08-21T07:01:49;25.20;99.90
4615;DHT22;2320;51.362;6.946;2023-08-21T07:04:16;25.40;99.90
4615;DHT22;2320;51.362;6.946;2023-08-21T07:06:41;26.80;99.90
4615;DHT22;2320;51.362;6.946;2023-08-21T07:09:07;27.60;99.90
4615;DHT22;2320;51.362;6.946;2023-08-21T07:11:32;28.70;99.90
4615;DHT22;2320;51.362;6.946;2023-08-21T07:13:58;29.40;99.90
4615;DHT22;2320;51.362;6.946;2023-08-21T07:16:24;29.80;99.90
4615;DHT22;2320;51.362;6.946;2023-08-21T07:18:51;29.60;99.90
4615;DHT22;2320;51.362;6.946;2023-08-21T07:21:17;30.10;99.90
4615;DHT22;2320;51.362;6.946;2023-08-21T07:23:42;29.40;99.90
4615;DHT22;2320;51.362;6.946;2023-08-21T07:26:08;29.60;99.90
4615;DHT22;2320;51.362;6.946;2023-08-21T07:28:33;31.00;99.90
4615;DHT22;2320;51.362;6.946;2023-08-21T07:30:59;32.00;99.90
4615;DHT22;2320;51.362;6.946;2023-08-21T07:33:25;33.00;99.90
4615;DHT22;2320;51.362;6.946;2023-08-21T07:36:03;33.30;99.90
4615;DHT22;2320;51.362;6.946;2023-08-21T07:38:29;31.30;99.90
4615;DHT22;2320;51.362;6.946;2023-08-21T07:41:01;30.10;99.90
4615;DHT22;2320;51.362;6.946;2023-08-21T07:43:27;30.50;99.90
4615;DHT22;2320;51.362;6.946;2023-08-21T07:45:53;31.80;99.90
4615;DHT22;2320;51.362;6.946;2023-08-21T07:48:18;31.20;99.90
4615;DHT22;2320;51.362;6.946;2023-08-21T07:50:50;31.60;99.90
4615;DHT22;2320;51.362;6.946;2023-08-21T07:53:16;32.00;99.90
4615;DHT22;2320;51.362;6.946;2023-08-21T07:55:41;31.60;99.90
4615;DHT22;2320;51.362;6.946;2023-08-21T07:58:06;31.60;99.90
4615;DHT22;2320;51.362;6.946;2023-08-21T08:00:32;31.10;99.90
4615;DHT22;2320;51.362;6.946;2023-08-21T08:02:58;30.40;99.90
4615;DHT22;2320;51.362;6.946;2023-08-21T08:05:23;30.20;99.90
4615;DHT22;2320;51.362;6.946;2023-08-21T08:07:49;30.40;99.90
4615;DHT22;2320;51.362;6.946;2023-08-21T08:10:14;30.90;99.90
4615;DHT22;2320;51.362;6.946;2023-08-21T08:12:43;30.80;99.90
4615;DHT22;2320;51.362;6.946;2023-08-21T08:15:09;30.60;99.90
4615;DHT22;2320;51.362;6.946;2023-08-21T08:17:35;31.80;99.90
4615;DHT22;2320;51.362;6.946;2023-08-21T08:20:01;30.30;99.90
4615;DHT22;2320;51.362;6.946;2023-08-21T08:22:26;30.10;99.90
4615;DHT22;2320;51.362;6.946;2023-08-21T08:24:52;29.80;99.90
4615;DHT22;2320;51.362;6.946;2023-08-21T08:27:17;29.90;99.90
4615;DHT22;2320;51.362;6.946;2023-08-21T08:29:42;30.50;99.90
4615;DHT22;2320;51.362;6.946;2023-08-21T08:32:08;31.30;99.90
4615;DHT22;2320;51.362;6.946;2023-08-21T08:34:33;32.20;99.90
4615;DHT22;2320;51.362;6.946;2023-08-21T08:36:59;32.40;99.90
4615;DHT22;2320;51.362;6.946;2023-08-21T08:39:24;33.30;99.90
4615;DHT22;2320;51.362;6.946;2023-08-21T08:41:51;33.60;99.90
4615;DHT22;2320;51.362;6.946;2023-08-21T08:44:19;33.50;99.90
4615;DHT22;2320;51.362;6.946;2023-08-21T08:46:44;34.40;99.90
4615;DHT22;2320;51.362;6.946;2023-08-21T08:49:11;34.00;99.90
4615;DHT22;2320;51.362;6.946;2023-08-21T08:51:37;32.60;99.90
4615;DHT22;2320;51.362;6.946;2023-08-21T08:54:04;32.40;99.90
4615;DHT22;2320;51.362;6.946;2023-08-21T08:56:29;31.70;99.90
4615;DHT22;2320;51.362;6.946;2023-08-21T08:58:54;32.50;99.90
4615;DHT22;2320;51.362;6.946;2023-08-21T09:01:20;32.90;99.90
4615;DHT22;2320;51.362;6.946;2023-08-21T09:03:46;33.40;99.90
4615;DHT22;2320;51.362;6.946;2023-08-21T09:06:11;34.00;99.90
4615;DHT22;2320;51.362;6.946;2023-08-21T09:08:36;33.90;99.90
4615;DHT22;2320;51.362;6.946;2023-08-21T09:11:02;33.90;99.90
4615;DHT22;2320;51.362;6.946;2023-08-21T09:13:30;33.80;99.90
4615;DHT22;2320;51.362;6.946;2023-08-21T09:15:56;33.10;99.90
4615;DHT22;2320;51.362;6.946;2023-08-21T09:18:22;33.10;99.90
4615;DHT22;2320;51.362;6.946;2023-08-21T09:20:47;33.70;99.90
4615;DHT22;2320;51.362;6.946;2023-08-21T09:23:16;34.40;99.90
4615;DHT22;2320;51.362;6.946;2023-08-21T09:25:43;34.50;99.90
4615;DHT22;2320;51.362;6.946;2023-08-21T09:28:09;33.70;99.90
4615;DHT22;2320;51.362;6.946;2023-08-21T09:30:51;34.20;99.90
4615;DHT22;2320;51.362;6.946;2023-08-21T09:33:20;33.40;99.90
4615;DHT22;2320;51.362;6.946;2023-08-21T09:35:46;34.00;99.90
4615;DHT22;2320;51.362;6.946;2023-08-21T09:38:12;35.00;99.90
4615;DHT22;2320;51.362;6.946;2023-08-21T09:40:41;35.40;98.70
4615;DHT22;2320;51.362;6.946;2023-08-21T09:43:10;33.90;98.90
4615;DHT22;2320;51.362;6.946;2023-08-21T09:45:37;34.10;99.50
4615;DHT22;2320;51.362;6.946;2023-08-21T09:48:03;34.80;98.30
4615;DHT22;2320;51.362;6.946;2023-08-21T09:50:29;33.70;99.00
4615;DHT22;2320;51.362;6.946;2023-08-21T09:52:54;34.30;99.40
4615;DHT22;2320;51.362;6.946;2023-08-21T09:55:21;33.00;99.60
4615;DHT22;2320;51.362;6.946;2023-08-21T09:57:46;33.20;99.90
4615;DHT22;2320;51.362;6.946;2023-08-21T10:00:14;33.30;99.60
4615;DHT22;2320;51.362;6.946;2023-08-21T10:02:51;33.10;99.50
4615;DHT22;2320;51.362;6.946;2023-08-21T10:05:17;32.90;99.80
4615;DHT22;2320;51.362;6.946;2023-08-21T10:07:43;33.90;99.50
4615;DHT22;2320;51.362;6.946;2023-08-21T10:10:09;34.30;98.60
4615;DHT22;2320;51.362;6.946;2023-08-21T10:12:36;35.00;98.30
4615;DHT22;2320;51.362;6.946;2023-08-21T10:15:01;35.60;97.70
4615;DHT22;2320;51.362;6.946;2023-08-21T10:17:27;36.50;96.90
4615;DHT22;2320;51.362;6.946;2023-08-21T10:19:52;36.00;95.60
4615;DHT22;2320;51.362;6.946;2023-08-21T10:25:02;33.90;95.70
4615;DHT22;2320;51.362;6.946;2023-08-21T10:27:30;35.10;96.60
4615;DHT22;2320;51.362;6.946;2023-08-21T10:29:56;33.50;96.60
4615;DHT22;2320;51.362;6.946;2023-08-21T10:32:22;33.80;97.70
4615;DHT22;2320;51.362;6.946;2023-08-21T10:34:52;33.50;97.30
4615;DHT22;2320;51.362;6.946;2023-08-21T10:37:18;32.50;98.20
4615;DHT22;2320;51.362;6.946;2023-08-21T10:39:56;32.80;97.90
4615;DHT22;2320;51.362;6.946;2023-08-21T10:42:36;33.00;99.40
4615;DHT22;2320;51.362;6.946;2023-08-21T10:45:09;32.70;99.20
4615;DHT22;2320;51.362;6.946;2023-08-21T10:47:35;33.20;99.30
4615;DHT22;2320;51.362;6.946;2023-08-21T10:52:27;34.40;98.60
4615;DHT22;2320;51.362;6.946;2023-08-21T10:54:54;33.10;98.20
4615;DHT22;2320;51.362;6.946;2023-08-21T10:57:21;32.20;99.50
4615;DHT22;2320;51.362;6.946;2023-08-21T11:02:18;31.90;99.90
4615;DHT22;2320;51.362;6.946;2023-08-21T11:04:44;31.70;99.90
4615;DHT22;2320;51.362;6.946;2023-08-21T11:07:10;32.50;99.90
4615;DHT22;2320;51.362;6.946;2023-08-21T11:09:35;33.20;99.90
4615;DHT22;2320;51.362;6.946;2023-08-21T11:12:11;33.70;99.70
4615;DHT22;2320;51.362;6.946;2023-08-21T11:14:37;34.30;98.70
4615;DHT22;2320;51.362;6.946;2023-08-21T11:17:02;34.90;96.00
4615;DHT22;2320;51.362;6.946;2023-08-21T11:19:31;34.70;96.40
4615;DHT22;2320;51.362;6.946;2023-08-21T11:21:57;36.00;96.90
4615;DHT22;2320;51.362;6.946;2023-08-21T11:27:13;35.40;96.20
4615;DHT22;2320;51.362;6.946;2023-08-21T11:29:40;34.20;96.50
4615;DHT22;2320;51.362;6.946;2023-08-21T11:32:09;34.00;97.50
4615;DHT22;2320;51.362;6.946;2023-08-21T11:34:35;33.30;97.70
4615;DHT22;2320;51.362;6.946;2023-08-21T11:37:00;33.90;98.90
4615;DHT22;2320;51.362;6.946;2023-08-21T11:39:26;34.40;98.10
4615;DHT22;2320;51.362;6.946;2023-08-21T11:41:58;34.00;98.50
4615;DHT22;2320;51.362;6.946;2023-08-21T11:44:24;32.60;98.70
4615;DHT22;2320;51.362;6.946;2023-08-21T11:46:52;32.70;99.90
4615;DHT22;2320;51.362;6.946;2023-08-21T11:49:21;32.40;99.90
4615;DHT22;2320;51.362;6.946;2023-08-21T11:51:47;31.80;99.90
4615;DHT22;2320;51.362;6.946;2023-08-21T11:54:13;31.50;99.90
4615;DHT22;2320;51.362;6.946;2023-08-21T11:56:39;31.40;99.90
4615;DHT22;2320;51.362;6.946;2023-08-21T11:59:04;31.40;99.90
4615;DHT22;2320;51.362;6.946;2023-08-21T12:01:32;31.30;99.90
4615;DHT22;2320;51.362;6.946;2023-08-21T12:03:58;31.30;99.90
4615;DHT22;2320;51.362;6.946;2023-08-21T12:06:24;31.00;99.90
4615;DHT22;2320;51.362;6.946;2023-08-21T12:08:50;30.80;99.90
4615;DHT22;2320;51.362;6.946;2023-08-21T12:11:16;30.80;99.90
4615;DHT22;2320;51.362;6.946;2023-08-21T12:13:41;30.80;99.90
4615;DHT22;2320;51.362;6.946;2023-08-21T12:16:07;30.80;99.90
4615;DHT22;2320;51.362;6.946;2023-08-21T12:18:32;30.80;99.90
4615;DHT22;2320;51.362;6.946;2023-08-21T12:20:58;30.90;99.90
4615;DHT22;2320;51.362;6.946;2023-08-21T12:23:23;30.90;99.90
4615;DHT22;2320;51.362;6.946;2023-08-21T12:25:49;30.40;99.90
4615;DHT22;2320;51.362;6.946;2023-08-21T12:28:14;30.10;99.90
4615;DHT22;2320;51.362;6.946;2023-08-21T12:30:40;29.80;99.90
4615;DHT22;2320;51.362;6.946;2023-08-21T12:33:05;29.10;99.90
4615;DHT22;2320;51.362;6.946;2023-08-21T12:35:31;28.80;99.90
4615;DHT22;2320;51.362;6.946;2023-08-21T12:37:57;28.40;99.90
4615;DHT22;2320;51.362;6.946;2023-08-21T12:40:22;28.10;99.90
4615;DHT22;2320;51.362;6.946;2023-08-21T12:42:48;27.50;99.90
4615;DHT22;2320;51.362;6.946;2023-08-21T12:45:13;28.00;99.90
4615;DHT22;2320;51.362;6.946;2023-08-21T12:47:39;28.20;99.90
4615;DHT22;2320;51.362;6.946;2023-08-21T12:50:05;28.40;99.90
4615;DHT22;2320;51.362;6.946;2023-08-21T12:52:32;28.60;99.90
4615;DHT22;2320;51.362;6.946;2023-08-21T12:54:58;28.70;99.90
4615;DHT22;2320;51.362;6.946;2023-08-21T12:57:24;28.40;99.90
4615;DHT22;2320;51.362;6.946;2023-08-21T12:59:51;28.70;99.90
4615;DHT22;2320;51.362;6.946;2023-08-21T13:02:16;28.90;99.90
4615;DHT22;2320;51.362;6.946;2023-08-21T13:04:42;29.10;99.90
4615;DHT22;2320;51.362;6.946;2023-08-21T13:07:08;29.00;99.90
4615;DHT22;2320;51.362;6.946;2023-08-21T13:09:33;29.20;99.90
4615;DHT22;2320;51.362;6.946;2023-08-21T13:11:59;29.30;99.90
4615;DHT22;2320;51.362;6.946;2023-08-21T13:14:24;28.70;99.90
4615;DHT22;2320;51.362;6.946;2023-08-21T13:16:50;28.70;99.90
4615;DHT22;2320;51.362;6.946;2023-08-21T13:19:15;28.30;99.90
4615;DHT22;2320;51.362;6.946;2023-08-21T13:21:41;28.40;99.90
4615;DHT22;2320;51.362;6.946;2023-08-21T13:24:06;28.40;99.90
4615;DHT22;2320;51.362;6.946;2023-08-21T13:26:32;28.20;99.90
4615;DHT22;2320;51.362;6.946;2023-08-21T13:28:57;27.80;99.90
4615;DHT22;2320;51.362;6.946;2023-08-21T13:31:23;28.00;99.90
4615;DHT22;2320;51.362;6.946;2023-08-21T13:33:49;28.20;99.90
4615;DHT22;2320;51.362;6.946;2023-08-21T13:36:15;28.50;99.90
4615;DHT22;2320;51.362;6.946;2023-08-21T13:38:40;28.60;99.90
4615;DHT22;2320;51.362;6.946;2023-08-21T13:41:06;28.60;99.90
4615;DHT22;2320;51.362;6.946;2023-08-21T13:43:33;28.60;99.90
4615;DHT22;2320;51.362;6.946;2023-08-21T13:46:00;28.80;99.90
4615;DHT22;2320;51.362;6.946;2023-08-21T13:48:25;28.80;99.90
4615;DHT22;2320;51.362;6.946;2023-08-21T13:50:50;28.50;99.90
4615;DHT22;2320;51.362;6.946;2023-08-21T13:53:16;28.50;99.90
4615;DHT22;2320;51.362;6.946;2023-08-21T13:55:41;28.40;99.90
4615;DHT22;2320;51.362;6.946;2023-08-21T13:58:07;28.30;99.90
4615;DHT22;2320;51.362;6.946;2023-08-21T14:00:33;28.50;99.90
4615;DHT22;2320;51.362;6.946;2023-08-21T14:02:58;28.50;99.90
4615;DHT22;2320;51.362;6.946;2023-08-21T14:05:23;28.50;99.90
4615;DHT22;2320;51.362;6.946;2023-08-21T14:07:51;28.40;99.90
4615;DHT22;2320;51.362;6.946;2023-08-21T14:10:16;28.60;99.90
4615;DHT22;2320;51.362;6.946;2023-08-21T14:12:42;28.80;99.90
4615;DHT22;2320;51.362;6.946;2023-08-21T14:15:08;28.80;99.90
4615;DHT22;2320;51.362;6.946;2023-08-21T14:17:33;28.60;99.90
4615;DHT22;2320;51.362;6.946;2023-08-21T14:19:59;28.60;99.90
4615;DHT22;2320;51.362;6.946;2023-08-21T14:22:24;28.60;99.90
4615;DHT22;2320;51.362;6.946;2023-08-21T14:24:49;28.70;99.90
4615;DHT22;2320;51.362;6.946;2023-08-21T14:27:15;28.80;99.90
4615;DHT22;2320;51.362;6.946;2023-08-21T14:29:43;28.90;99.90
4615;DHT22;2320;51.362;6.946;2023-08-21T14:32:09;28.70;99.90
4615;DHT22;2320;51.362;6.946;2023-08-21T14:34:35;28.50;99.90
4615;DHT22;2320;51.362;6.946;2023-08-21T14:37:00;28.80;99.90
4615;DHT22;2320;51.362;6.946;2023-08-21T14:39:26;29.10;99.90
4615;DHT22;2320;51.362;6.946;2023-08-21T14:41:54;29.10;99.90
4615;DHT22;2320;51.362;6.946;2023-08-21T14:44:20;29.20;99.90
4615;DHT22;2320;51.362;6.946;2023-08-21T14:46:45;29.10;99.90
4615;DHT22;2320;51.362;6.946;2023-08-21T14:49:11;29.30;99.90
4615;DHT22;2320;51.362;6.946;2023-08-21T14:51:38;29.00;99.90
4615;DHT22;2320;51.362;6.946;2023-08-21T14:54:04;29.00;99.90
4615;DHT22;2320;51.362;6.946;2023-08-21T14:56:29;29.20;99.90
4615;DHT22;2320;51.362;6.946;2023-08-21T14:58:55;29.10;99.90
4615;DHT22;2320;51.362;6.946;2023-08-21T15:01:21;29.00;99.90
4615;DHT22;2320;51.362;6.946;2023-08-21T15:03:47;28.60;99.90
4615;DHT22;2320;51.362;6.946;2023-08-21T15:06:12;28.70;99.90
4615;DHT22;2320;51.362;6.946;2023-08-21T15:08:38;28.50;99.90
4615;DHT22;2320;51.362;6.946;2023-08-21T15:11:05;28.50;99.90
4615;DHT22;2320;51.362;6.946;2023-08-21T15:13:30;28.60;99.90
4615;DHT22;2320;51.362;6.946;2023-08-21T15:15:56;28.60;99.90
4615;DHT22;2320;51.362;6.946;2023-08-21T15:18:21;28.60;99.90
4615;DHT22;2320;51.362;6.946;2023-08-21T15:20:47;28.90;99.90
4615;DHT22;2320;51.362;6.946;2023-08-21T15:23:13;28.80;99.90
4615;DHT22;2320;51.362;6.946;2023-08-21T15:25:38;28.80;99.90
4615;DHT22;2320;51.362;6.946;2023-08-21T15:28:05;29.00;99.90
4615;DHT22;2320;51.362;6.946;2023-08-21T15:30:31;29.10;99.90
4615;DHT22;2320;51.362;6.946;2023-08-21T15:32:57;29.30;99.90
4615;DHT22;2320;51.362;6.946;2023-08-21T15:35:22;29.40;99.90
4615;DHT22;2320;51.362;6.946;2023-08-21T15:37:48;29.40;99.90
4615;DHT22;2320;51.362;6.946;2023-08-21T15:40:14;29.40;99.90
4615;DHT22;2320;51.362;6.946;2023-08-21T15:42:39;29.50;99.90
4615;DHT22;2320;51.362;6.946;2023-08-21T15:45:05;29.70;99.90
4615;DHT22;2320;51.362;6.946;2023-08-21T15:47:31;29.40;99.90
4615;DHT22;2320;51.362;6.946;2023-08-21T15:49:57;29.50;99.90
4615;DHT22;2320;51.362;6.946;2023-08-21T15:52:22;29.50;99.90
4615;DHT22;2320;51.362;6.946;2023-08-21T15:54:48;29.40;99.90
4615;DHT22;2320;51.362;6.946;2023-08-21T15:57:17;29.20;99.90
4615;DHT22;2320;51.362;6.946;2023-08-21T15:59:43;29.30;99.90
4615;DHT22;2320;51.362;6.946;2023-08-21T16:02:08;29.20;99.90
4615;DHT22;2320;51.362;6.946;2023-08-21T16:04:34;29.20;99.90
4615;DHT22;2320;51.362;6.946;2023-08-21T16:06:59;29.10;99.90